Create Custom Reports and Graphics: Custom Report

Latest Observations

Map

15 Minute Data

South County Map

Map

15 Minute Data

Latest Observation

25 Stations

15 Minute Data | America/Los_Angeles
as of 9/3/26 8:52 PM PDT
Station Date Time Temp (°F) RH (%) Dew Pt (°F) Wind Spd (mph) Wind Dir (°) Wind Gust (mph) Latest Rain (In) Daily Rain (In) Daily Min Temp (°F) Daily Max Temp (°F)
Rockpile Upper (Cooley) 9/3/26 2045 54.1   0.5 87   1 50.3   1.0 6.0   5.0 NNW | 334 10.1   3.5 0.00 0.18 52.2   0.6 63.5   7.0
Rockpile Lower (Cooley) 9/3/26 2015 58.4   0.3 77   2 51.4   1.1 3.8   1.9 NW | 326 8.8   0.5 0.00 0.18 54.9   0.3 67.1   5.2
Cloverdale-East (Ranch 83) 9/3/26 2045 60.6   1.8 - - 0.1   2.8 ENE | 60 1.4   5.3 0.00 0.06 58.3   3.3 71.6   4.8
Cloverdale-SE (Ranch 38) 9/3/26 2045 59.6   1.8 84   15 55.0   3.5 6.0   2.4 N | 11 9.5   0.0 0.00 0.04 57.3   0.9 70.8   5.5
Geyserville-North (Hoffman) 9/3/26 2045 62.5   0.0 84   16 57.6   5.9 0.5   1.3 NW | 326 2.2   3.3 0.00 0.00 59.4   0.4 72.8   6.7
Geyserville (Ranch 3) 9/3/26 2045 62.5   1.1 85   21 58.0   6.8 0.3   0.9 NNW | 348 2.1   2.8 0.00 0.04 59.0   0.2 73.1   2.6
Geyserville-East (Ranch 40) 9/3/26 2045 59.3   1.3 87   15 55.5   3.8 2.1   1.0 NW | 320 5.7   1.0 0.00 0.03 57.5   0.4 70.2   4.8
Geyserville-South (Nervo Station) 9/3/26 2045 61.7   0.5 - - 0.1   0.2 N | 0 1.4   1.7 0.00 0.07 57.8   0.0 71.5   4.8
Peterson (Ranch 09) 9/3/26 2045 61.3   0.3 87   18 57.3   6.5 1.1   0.4 NE | 39 3.3   0.3 0.00 0.06 56.6   1.2 69.8   5.1
Crazy Creek Ranch 9/3/26 2045 61.7   0.1 88   9 58.3   3.2 0.8   1.1 ESE | 117 3.3   0.7 0.00 0.07 57.1   2.4 70.6   6.0
Whitton Ranch (201e) 9/3/26 2045 61.5   1.5 89   16 58.2   6.9 1.1   0.2 ENE | 60 2.1   0.7 0.00 0.08 56.4   1.6 73.7   4.5
Lytton East (Shop Hill Bottom) 9/3/26 2045 61.2   0.3 88   16 57.5   5.7 0.2   1.3 NNE | 12 1.2   1.8 0.00 0.08 57.9   0.2 72.7   3.1
Lytton East (Hill 5) 9/3/26 2045 60.9   0.3 89   17 57.6   5.5 0.4   3.1 N | 6 2.2   4.6 0.00 0.08 57.7   0.2 71.9   4.3
Lytton West Lower (Lew 6) 9/3/26 2045 61.5   1.8 87   12 57.6   5.7 0.0   2.5 N | 0 0.0   3.6 0.00 0.08 58.1   0.1 72.3   3.2
Lytton West Hill (23PS) 9/3/26 2045 61.5   0.3 88   15 58.0   5.3 0.7   1.3 ENE | 74 2.0   1.8 0.00 0.08 58.5   0.1 72.7   3.3
Big River 9/3/26 2045 60.7   0.5 92   11 58.3   3.2 0.8   2.2 NE | 55 2.2   5.2 0.00 0.09 58.3   0.2 68.9   4.7
Jimtown-North (Piccolo Ranch 15) 9/3/26 2045 61.8   0.7 81   7 55.9   3.2 0.2   0.0 ENE | 72 1.5   0.2 0.00 0.04 55.9   0.7 71.4   5.0
HWY 128/Chalk Hill Rd (Landslide) 9/3/26 2000 62.0   1.1 85   11 57.6   2.7 1.8   0.5 S | 182 4.2   2.1 0.00 0.13 57.2   1.0 70.6   5.1
N Chalk Hill Rd (Ranch 63) 9/3/26 2045 60.5   0.3 86   9 56.5   2.5 0.3   1.7 SE | 143 1.3   2.4 0.00 0.09 53.8   0.5 70.5   3.7
Newman Knights Valley 8/18/26 0015 56.2   1.8 85   4 51.7   0.4 0.8   3.5 NE | 55 2.3   5.8 0.00 0.00 55.0   1.2 88.3   0.6
Knights Valley (Bavarian Lion) 9/3/26 2045 60.3   0.3 86   9 56.2   3.2 0.9   0.7 WSW | 255 3.1   1.4 0.00 0.12 52.9   1.3 69.1   5.9
Red Tail 9/3/26 2045 60.8   0.1 87   6 56.8   2.2 1.0   1.2 E | 95 3.2   4.9 0.00 0.11 55.2   1.6 69.7   5.3
Franz Valley (Stornetta) 9/3/26 2045 60.0   0.2 92   14 57.6   4.2 1.4   0.0 E | 93 2.9   1.5 0.00 0.26 53.7   0.4 68.5   5.8
Upper Dry Creek Valley 9/3/26 2045 62.5   2.1 85   10 57.9   5.5 0.6   1.4 N | 0 2.7   0.3 0.00 0.05 59.1   4.4 72.0   4.2
Lower Dry Creek Valley 9/3/26 2045 62.1   1.8 86   9 58.0   4.8 0.0   0.0 N | 0 0.0   0.0 0.00 0.08 58.4   2.7 72.4   3.7
Max     62.5 92 58.3 6.0 - 10.1 0.00 0.26 59.4 73.7
Avg     60.8 86 56.7 1.3 - 3.2 0.00 - - -
Min     54.1 77 50.3 0.0 - 0.0 0.00 0.00 52.2 63.5

Central Sonoma County Latest

37 Stations

15 Minute Data | America/Los_Angeles
as of 9/3/26 8:52 PM PDT
Station Date Time Temp (°F) RH (%) Dew Pt (°F) Wind Spd (mph) Wind Dir (°) Wind Gust (mph) Latest Rain (In) Daily Rain (In) Daily Max Temp (°F) Daily Min Temp (°F)
Windsor-NW (Ranch 8) 9/3/26 2045 61.8   0.8 82   0 56.3   0.9 0.0   0.0 ESE | 106 0.0   0.0 0.00 0.18 71.0   3.7 58.8   0.4
Windsor-East (Ranch 16) 9/3/26 2045 61.0   0.7 90   13 58.2   3.6 1.6   2.8 ESE | 122 3.0   3.5 0.00 0.08 70.4   5.1 59.1   0.0
Mark West-North (Ranch 14) 9/3/26 2045 61.2   0.2 91   14 58.4   4.5 2.0   1.5 E | 93 4.0   0.3 0.00 0.11 70.6   4.8 59.8   0.2
Windsor-SE (Silk Rd) 9/3/26 2045 62.4   2.2 86   2 58.1   2.7 1.1   0.5 S | 185 3.1   0.6 0.00 0.10 71.4   2.5 58.5   0.4
Fulton-NW (Ranch 5) 9/3/26 2045 61.3   1.2 93   10 59.3   4.3 2.9   2.8 E | 85 5.0   3.6 0.00 0.12 69.8   4.4 59.6   0.1
Bisordi (Fulton) 9/3/26 2045 61.4   2.5 92   7 59.1   4.6 1.9   1.4 ESE | 109 4.3   3.3 0.00 0.14 69.5   4.2 59.2   0.3
Windsor-South (Laughlin Rd) 9/3/26 2045 61.9   0.8 87   8 58.1   3.4 - - - 0.00 0.06 71.2   3.5 58.6   0.4
Fulton-SE (Barnes Rd) 9/3/26 2045 61.7   0.1 92   12 59.2   4.0 0.0   0.4 N | 0 0.0   1.4 0.00 0.18 70.0   4.5 60.1   0.2
Fulton-SW (Ranch 21) 9/3/26 2045 61.0   1.6 92   9 58.7   4.6 1.2   0.8 SE | 136 3.6   1.8 0.00 0.11 70.0   3.0 57.4   1.5
NW Santa Rosa (Piner Road) 9/3/26 2045 61.6   2.3 100   6 61.7   4.0 1.0   0.9 SW | 215 3.7   2.5 0.00 0.00 69.9   4.2 56.2   2.6
River Rd South (Denner Ranch) 9/3/26 2045 60.4   0.6 0   80 -58.5   112.2 2.4   1.1 SSW | 196 4.2   1.8 - - 69.2   4.4 56.0   1.7
West Santa Rosa (LOV Vineyard) 8/26/26 0900 53.3   5.2 97   6 52.4   3.5 1.0   0.1 SW | 224 3.6   0.0 0.00 0.00 53.6   5.2 50.2   1.8
Guerneville Rd (Prokopakis) 9/3/26 2045 62.1   1.8 86   1 57.9   2.2 - - - 0.00 0.08 75.2   1.8 56.9   2.3
SunnyView Vineyard (SCWC) 9/3/26 2045 61.0   1.6 89   8 57.8   4.1 0.3   0.1 S | 170 2.0   0.2 0.00 0.18 70.3   3.5 55.5   3.4
Guerneville Rd West (Balletto) 9/3/26 2045 62.0   1.3 92   7 59.7   3.6 0.0   0.1 SE | 145 0.8   0.9 0.00 0.19 70.7   2.7 58.2   0.9
Sanchietti Ranch 9/3/26 2045 62.0   1.6 91   5 59.5   3.1 0.9   0.3 SSW | 197 2.0   0.4 0.00 0.20 71.6   2.9 58.5   0.0
Occidental Rd (Sebastopol) 9/3/26 2045 61.2   0.9 100   0 61.2   1.0 2.2   0.9 WSW | 245 6.1   3.7 0.00 0.14 70.7   3.7 57.5   0.1
Harper's Rest (Windsor-West) 9/3/26 2045 61.5   3.0 83   1 56.5   2.6 1.6   1.1 SW | 231 4.4   2.3 0.00 0.14 72.9   2.8 55.8   2.3
Lower Westside Rd (Ranch 12) 9/3/26 2045 62.6   3.0 84   1 57.7   2.5 1.3   1.2 W | 264 3.5   2.4 0.00 0.14 70.4   2.8 55.6   3.2
Guerneville (Laughlin Rd) 9/3/26 2045 61.6   3.9 86   5 57.5   2.4 1.2   1.2 SSE | 165 2.7   2.7 0.00 0.40 69.5   2.9 56.4   1.3
Korbel (Winery) 9/3/26 2045 62.5   3.4 87   3 58.6   2.3 0.2   0.2 SW | 235 3.4   2.2 0.00 0.31 70.7   1.3 57.4   1.8
Forestville (Shone Farms) 9/3/26 2045 62.5   1.5 84   1 57.6   1.7 2.4   1.5 SW | 222 5.0   0.8 0.00 0.10 70.4   3.7 57.7   0.1
Forestville-NE (Ranch 30) 9/3/26 2045 61.8   2.1 88   0 58.1   2.1 0.6   0.0 WNW | 284 3.4   0.3 0.00 0.10 70.7   3.5 56.6   1.5
Foggy Bend (Ranch 41) 9/3/26 2045 62.9   1.5 84   1 58.2   1.7 1.5   0.5 WSW | 255 3.1   1.6 0.00 0.13 69.9   3.3 57.7   1.6
Last Stop 9/3/26 2045 62.6   5.6 80   8 56.4   2.7 1.9   1.6 SW | 228 4.5   2.6 0.00 0.10 69.8   2.7 57.7   0.7
Green Valley Vineyard 9/3/26 2045 61.6   3.3 84   6 56.6   1.5 1.4   0.3 WNW | 283 3.3   0.4 0.00 0.15 69.9   2.3 56.9   0.9
Park Royal 9/3/26 2045 61.2   0.4 90   12 58.4   3.6 - - - 0.00 0.15 70.4   3.5 58.2   1.2
Merino 9/3/26 2045 60.7   2.5 96   10 59.6   5.4 0.7   0.3 SSW | 207 3.3   1.6 0.00 0.25 72.7   4.4 56.8   0.5
Green Valley (Sanchietti) 9/3/26 2045 62.5   4.7 - - - - - - - 71.4   3.1 56.0   1.3
Keefer Ranch (Green Valley) 9/3/26 2045 62.5   4.2 85   4 58.0   2.8 - - - 0.00 0.16 70.5   2.8 57.4   0.9
Graton-West (Dutton Ranch) 9/3/26 2045 62.6   2.9 100   0 62.7   2.9 0.8   0.9 ESE | 110 1.9   1.1 0.00 0.27 72.4   1.1 57.6   1.7
Graton-South (Mill Station Rd) 9/3/26 2045 61.0   1.2 92   5 58.6   2.7 1.6   1.6 WSW | 238 3.7   3.7 0.00 0.24 69.6   1.3 58.0   0.5
Occidental (Horseshoe Bend) 9/3/26 2045 59.2   0.5 94   2 57.6   1.1 - - - 0.00 0.36 67.2   1.5 58.9   1.0
Sexton Valley (Jacqueline's Blk) 9/3/26 2045 61.1   0.3 94   3 59.4   1.4 0.8   0.2 WSW | 238 2.8   1.4 0.00 0.01 70.8   1.5 59.2   2.7
Sebastopol Hills (Burnside Rd) 9/3/26 2045 59.4   0.3 98   3 59.0   0.7 3.2   1.3 WSW | 239 6.8   1.5 0.00 0.00 67.3   2.0 59.3   1.3
Pleasant Hill 9/3/26 2045 59.7   0.0 93   2 57.8   0.7 2.2   0.8 W | 272 6.2   2.8 0.00 0.28 72.4   1.7 59.6   3.3
Seaview/Fort Ross (Hirsch) 9/3/26 2045 54.7   0.9 97   1 53.8   0.4 1.6   0.9 WNW | 284 4.7   2.1 0.00 0.00 60.9   3.8 54.7   0.5
Max     62.9 100 62.7 3.2 - 6.8 0.00 0.40 75.2 60.1
Avg     61.3 88 55.1 1.4 - 3.5 0.00 - - -
Min     54.7 0 -58.5 0.0 - 0.0 0.00 0.00 60.9 54.7

Southern Sonoma County Latest

20 Stations

15 Minute Data
as of 9/3/26 8:52 PM PDT
Station Date Time Temp (°F) RH (%) Dew Pt (°F) Wind Spd (mph) Wind Dir (°) Wind Gust (mph) Latest Rain (In) Daily Rain (In) Daily Min Temp (°F) Daily Max Temp (°F)
Upper Rincon Valley 9/3/26 2045 57.5   0.4 96   8 56.4   2.9 0.6   0.6 W | 277 2.1   0.7 0.00 0.00 55.3   0.6 66.9   5.2
Lower Bennett Valley 9/3/26 2045 59.6   0.7 94   7 57.9   1.6 0.7   1.0 NW | 326 3.2   2.5 0.00 0.33 55.2   2.7 66.2   7.3
Kenwood (Wildwood) 9/3/26 2045 59.4   0.9 95   12 58.0   2.9 0.8   2.6 NNE | 28 1.9   6.1 0.00 0.15 56.0   3.2 67.7   7.2
Crane Creek (Ranch 62) 9/3/26 2045 60.6   0.7 95   12 59.2   4.3 0.0   0.0 NE | 49 0.9   0.7 0.00 0.27 59.7   2.5 68.5   8.8
Rohnert Park-West (Stony Point) 9/3/26 2045 60.8   0.2 94   3 59.0   0.8 4.8   4.8 WSW | 238 9.5   9.4 0.00 0.14 60.0   5.3 68.7   3.8
Rice-Spivak Vineyard 9/3/26 2045 60.2   0.2 - - - - - - - 60.2   8.8 69.4   4.0
Cartograph Wines Base 9/3/26 2045 59.6   0.7 96   3 58.3   0.2 5.7   3.8 SSW | 208 9.3   4.9 0.00 0.13 59.5   4.1 68.3   2.9
Cartograph Wines Remote 9/3/26 2045 60.3   0.1 - - - - - - - 60.2   5.5 69.5   1.3
Penngrove (Asellus) 9/3/26 2045 60.6   0.0 92   7 58.2   2.2 1.9   1.8 NW | 309 3.2   2.3 0.00 0.23 57.4   3.2 68.7   6.1
Sonoma Valley (Bedrock) 9/3/26 2045 58.9   1.5 93   17 56.8   4.0 - - - 0.00 0.20 54.6   2.0 65.7   8.5
Sonoma-West (Arnold) 9/3/26 2045 61.1   1.1 89   15 57.8   3.9 1.7   2.1 NW | 321 3.6   3.7 0.00 0.27 56.1   3.4 67.6   9.5
Sonoma Valley HS 9/3/26 2045 60.5   2.1 99   18 60.3   3.5 0.4   2.9 WNW | 282 1.7   5.3 0.00 0.00 55.6   1.1 66.4   10.1
Sonoma East (Bundschu01) 9/3/26 2045 61.2   1.2 92   16 58.8   4.1 0.8   2.8 NNW | 330 2.4   5.3 0.00 0.17 51.3   0.2 68.6   7.5
Sonoma-SE (Napoli) 9/3/26 2045 60.6   1.9 92   17 58.4   3.6 0.2   5.0 W | 276 2.7   6.7 0.00 0.17 52.2   1.2 69.2   9.9
Schellville (Sasaki) 2/7/26 1900 53.4   2.2 88   10 49.9   1.0 3.3   1.8 SW | 225 5.8   4.0 0.00 0.00 47.0   0.8 62.8   8.4
Petaluma (Ranch 10) 9/3/26 2045 61.1   0.5 92   10 58.6   2.6 0.2   2.2 NW | 312 1.9   5.0 0.00 0.06 57.9   6.2 68.2   8.0
Carneros (Ranch 71) 9/3/26 2045 59.4   1.9 94   15 57.9   2.9 4.7   4.0 W | 277 7.6   8.3 0.00 0.06 57.4   0.5 67.9   6.9
Ricci Vineyards (Carneros) 9/3/26 2045 60.2   1.8 92   14 57.9   2.9 3.8   5.3 WNW | 300 6.9   7.3 0.00 0.08 54.1   2.1 69.1   8.1
Carneros Upper (Ranch 81) 9/3/26 2045 59.4   1.8 100   20 59.4   4.6 7.5   8.6 WSW | 256 11.5   11.0 - - 57.1   0.3 67.4   8.6
Carneros Lower (Ranch 81) 9/3/26 2045 60.1   1.8 0   79 -57.6   113.0 0.0   2.3 S | 170 0.5   7.7 0.00 0.00 53.7   1.7 68.4   11.8
Max     61.2 100 60.3 7.5 - 11.5 0.00 0.33 60.2 69.5
Avg     60.1 88 51.5 2.1 - 4.3 0.00 - - -
Min     57.5 0 -57.6 0.0 - 0.5 0.00 0.00 51.3 65.7

AQI Map

Map

Hourly Data